Tricana De Aveiro — CUMB — position and weather

sailwx.info

Track history (hours):
 
Tides and Currents Weather Stations Pressure Air Temp Water Temp Dewpoint Dewpoint Depression Visibility Wind Speed Wind Dir Waves Ship Positions

Tricana De Aveiro

Last reported at 2017-Sep-08 05:48 UTC. Time now 2017-Sep-22 17:20 UTC.
Position N 40°26' W 009°00'.
Warning: this ship's position is 14 days out of date.

Length 24 m.

Type: Fishing. MMSI: 263442000.

Date/timePositionNaut miles runAvg speedWind from/ knotsBaromVisibWave heightAir tempDewpointWater temp
2017-Sep-08 05:48N 40°26' W 009°00'1 3.3
2017-Sep-08 05:30N 40°26' W 009°01'1 2.1
2017-Sep-08 04:51N 40°26' W 009°03'1 3.6
2017-Sep-08 04:29N 40°28' W 009°03'2 3.6
2017-Sep-08 03:56N 40°30' W 009°02'1 2.9
2017-Sep-08 03:30N 40°31' W 009°02'2 3.2
2017-Sep-08 02:59N 40°32' W 009°02'2 3.3
2017-Sep-08 02:23N 40°34' W 009°02'1 3.3
2017-Sep-08 02:00N 40°36' W 009°02'3 5.8
2017-Sep-08 01:30N 40°37' W 008°58'11 1.4
2017-Sep-07 17:50N 40°38' W 008°44'2 4.8
2017-Sep-07 17:30N 40°38' W 008°46'4 7.9
2017-Sep-07 17:00N 40°40' W 008°51'3 6.7
2017-Sep-07 16:30N 40°41' W 008°55'1 2.6
2017-Sep-07 16:00N 40°40' W 008°56'2 3.1
2017-Sep-07 15:30N 40°39' W 008°57'2 3.1
2017-Sep-07 15:00N 40°37' W 008°57'2 3.4
2017-Sep-07 14:30N 40°36' W 008°56'1 2.5
2017-Sep-07 14:00N 40°34' W 008°56'2 3.3
2017-Sep-07 13:30N 40°33' W 008°55'1 2.3
2017-Sep-07 12:59N 40°32' W 008°56'2 3.5
2017-Sep-07 12:30N 40°34' W 008°56'2 3.4
2017-Sep-07 11:54N 40°35' W 008°55'1 2.7
2017-Sep-07 11:29N 40°36' W 008°54'1 1.9
2017-Sep-07 11:00N 40°35' W 008°54'2 3.3
2017-Sep-07 10:30N 40°33' W 008°54'2 3.2
2017-Sep-07 10:00N 40°32' W 008°55'2 3.2
2017-Sep-07 09:30N 40°30' W 008°55'2 3.3
2017-Sep-07 09:00N 40°29' W 008°56'2 3.3
2017-Sep-07 08:30N 40°27' W 008°56'1 2.5
2017-Sep-07 08:00N 40°26' W 008°57'2 3.2
2017-Sep-07 07:30N 40°24' W 008°57'2 3.2
2017-Sep-07 07:00N 40°23' W 008°58'2 3.3
2017-Sep-07 06:30N 40°21' W 008°58'2 3.4
2017-Sep-07 06:01N 40°20' W 008°59'  
Track history (hours):
 
Tides and Currents Weather Stations Pressure Air Temp Water Temp Dewpoint Dewpoint Depression Visibility Wind Speed Wind Dir Waves Ship Positions

Tricana De Aveiro

Last reported at 2017-Sep-08 05:48 UTC. Time now 2017-Sep-22 17:20 UTC.
Position N 40°26' W 009°00'.
Warning: this ship's position is 14 days out of date.

Length 24 m.

Type: Fishing. MMSI: 263442000.

Date/timePositionNaut miles runAvg speedWind from/ knotsBaromVisibWave heightAir tempDewpointWater temp
2017-Sep-08 05:48N 40°26' W 009°00'1 3.3
2017-Sep-08 05:30N 40°26' W 009°01'1 2.1
2017-Sep-08 04:51N 40°26' W 009°03'1 3.6
2017-Sep-08 04:29N 40°28' W 009°03'2 3.6
2017-Sep-08 03:56N 40°30' W 009°02'1 2.9
2017-Sep-08 03:30N 40°31' W 009°02'2 3.2
2017-Sep-08 02:59N 40°32' W 009°02'2 3.3
2017-Sep-08 02:23N 40°34' W 009°02'1 3.3
2017-Sep-08 02:00N 40°36' W 009°02'3 5.8
2017-Sep-08 01:30N 40°37' W 008°58'11 1.4
2017-Sep-07 17:50N 40°38' W 008°44'2 4.8
2017-Sep-07 17:30N 40°38' W 008°46'4 7.9
2017-Sep-07 17:00N 40°40' W 008°51'3 6.7
2017-Sep-07 16:30N 40°41' W 008°55'1 2.6
2017-Sep-07 16:00N 40°40' W 008°56'2 3.1
2017-Sep-07 15:30N 40°39' W 008°57'2 3.1
2017-Sep-07 15:00N 40°37' W 008°57'2 3.4
2017-Sep-07 14:30N 40°36' W 008°56'1 2.5
2017-Sep-07 14:00N 40°34' W 008°56'2 3.3
2017-Sep-07 13:30N 40°33' W 008°55'1 2.3
2017-Sep-07 12:59N 40°32' W 008°56'2 3.5
2017-Sep-07 12:30N 40°34' W 008°56'2 3.4
2017-Sep-07 11:54N 40°35' W 008°55'1 2.7
2017-Sep-07 11:29N 40°36' W 008°54'1 1.9
2017-Sep-07 11:00N 40°35' W 008°54'2 3.3
2017-Sep-07 10:30N 40°33' W 008°54'2 3.2
2017-Sep-07 10:00N 40°32' W 008°55'2 3.2
2017-Sep-07 09:30N 40°30' W 008°55'2 3.3
2017-Sep-07 09:00N 40°29' W 008°56'2 3.3
2017-Sep-07 08:30N 40°27' W 008°56'1 2.5
2017-Sep-07 08:00N 40°26' W 008°57'2 3.2
2017-Sep-07 07:30N 40°24' W 008°57'2 3.2
2017-Sep-07 07:00N 40°23' W 008°58'2 3.3
2017-Sep-07 06:30N 40°21' W 008°58'2 3.4
2017-Sep-07 06:01N 40°20' W 008°59'  

Dump ship's entire track history